createdAt,value
2024-05-09T00:00:49.379Z,11.78
2024-05-09T00:11:18.486Z,11.71
2024-05-09T00:21:45.797Z,11.63
2024-05-09T00:32:07.833Z,11.57
2024-05-09T00:42:29.293Z,11.50
2024-05-09T00:52:51.000Z,11.41
2024-05-09T01:03:14.343Z,11.36
2024-05-09T01:13:36.115Z,11.29
2024-05-09T01:23:57.688Z,11.23
2024-05-09T01:34:19.289Z,11.18
2024-05-09T01:44:41.250Z,11.13
2024-05-09T01:55:05.834Z,11.06
2024-05-09T02:05:28.514Z,10.99
2024-05-09T02:15:52.735Z,10.94
2024-05-09T02:26:14.665Z,10.89
2024-05-09T02:36:35.851Z,10.85
2024-05-09T02:46:57.283Z,10.76
2024-05-09T02:57:19.020Z,10.72
2024-05-09T03:07:43.502Z,10.68
2024-05-09T03:18:06.319Z,10.63
2024-05-09T03:28:28.280Z,10.59
2024-05-09T03:38:51.108Z,10.54
2024-05-09T03:49:12.968Z,10.52
2024-05-09T03:59:34.565Z,10.43
2024-05-09T04:09:55.965Z,10.39
2024-05-09T04:20:28.856Z,10.33
2024-05-09T04:30:58.337Z,10.34
2024-05-09T04:41:20.388Z,10.30
2024-05-09T04:51:42.162Z,10.27
2024-05-09T05:02:04.598Z,10.26
2024-05-09T05:12:44.847Z,10.22
2024-05-09T05:23:10.913Z,10.25
2024-05-09T05:33:32.724Z,10.24
2024-05-09T05:43:54.535Z,10.25
2024-05-09T05:54:15.882Z,10.21
2024-05-09T06:04:38.408Z,10.27
2024-05-09T06:15:00.920Z,10.47
2024-05-09T06:25:22.575Z,10.69
2024-05-09T06:35:44.913Z,10.95
2024-05-09T06:46:06.731Z,11.16
2024-05-09T06:56:28.280Z,11.40
2024-05-09T07:06:49.642Z,11.65
2024-05-09T07:17:12.292Z,11.91
2024-05-09T07:27:34.817Z,12.17
2024-05-09T07:37:56.731Z,12.40
2024-05-09T07:58:46.692Z,12.90
2024-05-09T08:09:13.699Z,13.15
2024-05-09T08:19:41.117Z,13.40
2024-05-09T08:30:03.964Z,13.63
2024-05-09T08:40:33.366Z,13.87
2024-05-09T08:50:59.642Z,14.11
2024-05-09T09:01:22.622Z,14.36
2024-05-09T09:11:44.349Z,14.57
2024-05-09T09:22:06.085Z,14.66
2024-05-09T09:32:30.502Z,14.67
2024-05-09T09:42:57.716Z,14.61
2024-05-09T09:53:19.752Z,14.65
2024-05-09T10:03:42.937Z,14.77
2024-05-09T10:14:06.770Z,15.00
2024-05-09T10:24:28.396Z,15.29
2024-05-09T10:35:06.797Z,15.64
2024-05-09T10:45:28.607Z,15.88
2024-05-09T10:56:00.051Z,15.97
2024-05-09T11:06:23.155Z,16.07
2024-05-09T11:16:44.743Z,16.28
2024-05-09T11:27:06.800Z,16.53
2024-05-09T11:37:28.384Z,16.61
2024-05-09T11:47:50.336Z,16.58
2024-05-09T11:58:13.849Z,16.76
2024-05-09T12:08:35.552Z,16.86
2024-05-09T12:18:57.298Z,16.89
2024-05-09T12:29:19.134Z,16.92
2024-05-09T12:39:40.646Z,17.05
2024-05-09T12:50:03.812Z,17.17
2024-05-09T13:00:33.200Z,17.15
2024-05-09T13:10:56.644Z,17.11
2024-05-09T13:21:18.031Z,17.22
2024-05-09T13:31:39.708Z,17.22
2024-05-09T13:42:01.391Z,17.18
2024-05-09T13:52:23.117Z,17.15
2024-05-09T14:02:45.725Z,17.17
2024-05-09T14:13:07.605Z,17.18
2024-05-09T14:23:29.540Z,17.20
2024-05-09T14:33:51.339Z,17.19
2024-05-09T14:44:12.944Z,17.13
2024-05-09T14:54:34.697Z,17.06
2024-05-09T15:04:56.237Z,17.02
2024-05-09T15:15:18.303Z,16.97
2024-05-09T15:25:40.633Z,16.90
2024-05-09T15:36:01.995Z,16.86
2024-05-09T15:46:24.256Z,16.86
2024-05-09T15:56:49.087Z,16.85
2024-05-09T16:07:10.694Z,16.85
2024-05-09T16:17:32.297Z,16.83
2024-05-09T16:27:54.436Z,16.80
2024-05-09T16:38:16.341Z,16.77
2024-05-09T16:48:41.020Z,16.73
2024-05-09T16:59:02.514Z,16.68
2024-05-09T17:09:24.217Z,16.64
2024-05-09T17:30:15.162Z,16.54
2024-05-09T17:40:38.504Z,16.55
2024-05-09T17:51:01.100Z,16.58
2024-05-09T18:01:23.758Z,16.47
2024-05-09T18:11:45.596Z,16.34
2024-05-09T18:22:07.145Z,16.22
2024-05-09T18:32:28.737Z,16.12
2024-05-09T18:42:50.770Z,15.99
2024-05-09T18:53:13.386Z,15.87
2024-05-09T19:03:35.587Z,15.75
2024-05-09T19:13:58.857Z,15.65
2024-05-09T19:24:20.764Z,15.56
2024-05-09T19:34:42.206Z,15.45
2024-05-09T19:45:05.489Z,15.36
2024-05-09T19:55:26.963Z,15.27
2024-05-09T20:05:48.778Z,15.17
2024-05-09T20:16:11.390Z,15.05
2024-05-09T20:26:32.752Z,14.97
2024-05-09T20:36:54.335Z,14.87
2024-05-09T20:47:16.827Z,14.77
2024-05-09T20:57:38.314Z,14.67
2024-05-09T21:07:59.767Z,14.58
2024-05-09T21:18:21.458Z,14.51
2024-05-09T21:28:43.624Z,14.43
2024-05-09T21:39:05.475Z,14.35
2024-05-09T21:49:27.941Z,14.28
2024-05-09T21:59:49.567Z,14.19
2024-05-09T22:10:20.048Z,14.14
2024-05-09T22:20:47.691Z,14.05
2024-05-09T22:31:09.442Z,13.98
2024-05-09T22:41:32.173Z,13.90
2024-05-09T22:51:53.772Z,13.84
2024-05-09T23:02:15.439Z,13.75
2024-05-09T23:12:39.121Z,13.68
2024-05-09T23:23:00.891Z,13.61
2024-05-09T23:33:22.576Z,13.52
2024-05-09T23:43:44.439Z,13.46
2024-05-09T23:54:08.147Z,13.36
